Time;durP1;ratioP1;P1;durP2;ratioP2;P2;SDS_P1;SDS_P2;PMS_P1;PMS_P2;Temp;Humidity;BMP_temperature;BMP_pressure;BME280_temperature;BME280_humidity;BME280_pressure;Samples;Min_cycle;Max_cycle;Signal;HPM_P1;HPM_P2
2023/04/18 00:00:55;;;;;;;14.73;12.20;;;;;;;;;;5055283;28;20213;-76
2023/04/18 00:03:22;;;;;;;16.07;12.03;;;;;;;;;;5050626;28;20622;-76
2023/04/18 00:05:50;;;;;;;15.93;12.37;;;;;;;;;;5067500;28;20208;-74
2023/04/18 00:08:18;;;;;;;15.27;12.40;;;;;;;;;;5078850;28;20690;-76
2023/04/18 00:10:45;;;;;;;14.47;11.83;;;;;;;;;;5083934;28;20312;-75
2023/04/18 00:13:12;;;;;;;14.50;12.40;;;;;;;;;;5068490;28;20198;-75
2023/04/18 00:15:42;;;;;;;17.67;12.93;;;;;;;;;;5040380;28;20208;-76
2023/04/18 00:18:10;;;;;;;15.50;12.10;;;;;;;;;;5064730;28;20221;-75
2023/04/18 00:20:38;;;;;;;15.23;12.27;;;;;;;;;;5079766;28;20641;-74
2023/04/18 00:23:06;;;;;;;14.80;12.20;;;;;;;;;;5070006;28;20232;-75
2023/04/18 00:25:33;;;;;;;14.30;11.93;;;;;;;;;;5067570;28;20306;-75
2023/04/18 00:28:01;;;;;;;15.10;11.77;;;;;;;;;;5066273;28;20956;-75
2023/04/18 00:30:28;;;;;;;17.90;13.60;;;;;;;;;;5072025;28;20693;-75
2023/04/18 00:32:55;;;;;;;15.57;12.70;;;;;;;;;;5065016;28;20201;-76
2023/04/18 00:35:23;;;;;;;15.93;13.03;;;;;;;;;;5075243;28;20198;-75
2023/04/18 00:37:51;;;;;;;15.80;11.80;;;;;;;;;;5065140;28;20202;-75
2023/04/18 00:40:18;;;;;;;16.27;12.57;;;;;;;;;;5067590;28;20597;-75
2023/04/18 00:42:46;;;;;;;16.63;13.43;;;;;;;;;;5048723;28;20201;-75
2023/04/18 00:45:13;;;;;;;16.63;13.27;;;;;;;;;;5054559;28;20204;-75
2023/04/18 00:47:40;;;;;;;16.70;12.83;;;;;;;;;;5051709;28;20248;-74
2023/04/18 00:50:08;;;;;;;17.40;12.93;;;;;;;;;;5076075;28;20310;-75
2023/04/18 00:52:36;;;;;;;16.30;13.00;;;;;;;;;;5067275;28;20259;-75
2023/04/18 00:55:05;;;;;;;16.37;12.00;;;;;;;;;;5047429;28;20198;-76
2023/04/18 00:57:33;;;;;;;20.23;13.90;;;;;;;;;;5070968;28;20201;-76
2023/04/18 01:00:01;;;;;;;16.00;12.57;;;;;;;;;;5074632;28;20267;-75
2023/04/18 01:02:29;;;;;;;20.40;13.13;;;;;;;;;;5073284;28;20981;-75
2023/04/18 01:04:57;;;;;;;16.57;12.33;;;;;;;;;;5072455;28;20628;-75
2023/04/18 01:07:25;;;;;;;16.27;12.73;;;;;;;;;;5067275;28;20209;-75
2023/04/18 01:09:53;;;;;;;17.83;13.73;;;;;;;;;;5070998;28;21048;-74
2023/04/18 01:12:20;;;;;;;17.27;13.20;;;;;;;;;;5072079;28;20667;-75
2023/04/18 01:14:47;;;;;;;18.67;13.53;;;;;;;;;;5073530;28;20786;-75
2023/04/18 01:17:15;;;;;;;17.80;13.07;;;;;;;;;;5077920;28;20626;-76
2023/04/18 01:19:43;;;;;;;18.27;13.43;;;;;;;;;;5075898;28;20297;-75
2023/04/18 01:22:12;;;;;;;18.10;14.00;;;;;;;;;;5070455;28;20323;-75
2023/04/18 01:24:40;;;;;;;17.43;13.27;;;;;;;;;;5060847;28;20205;-76
2023/04/18 01:27:11;;;;;;;17.83;13.67;;;;;;;;;;5053606;28;20201;-75
2023/04/18 01:29:38;;;;;;;17.63;13.33;;;;;;;;;;5071137;28;20260;-75
2023/04/18 01:32:06;;;;;;;19.40;14.20;;;;;;;;;;5048612;28;20197;-76
2023/04/18 01:34:33;;;;;;;17.57;14.10;;;;;;;;;;5064852;28;20197;-75
2023/04/18 01:37:00;;;;;;;22.23;15.20;;;;;;;;;;5088719;28;20197;-76
2023/04/18 01:39:28;;;;;;;19.03;14.37;;;;;;;;;;5043665;28;20668;-76
2023/04/18 01:41:55;;;;;;;18.13;14.60;;;;;;;;;;5074544;28;20232;-76
2023/04/18 01:44:23;;;;;;;19.43;14.23;;;;;;;;;;5083582;28;20674;-75
2023/04/18 01:46:50;;;;;;;19.03;14.43;;;;;;;;;;5070198;28;20201;-75
2023/04/18 01:49:17;;;;;;;18.17;14.27;;;;;;;;;;5059039;28;22668;-75
2023/04/18 01:51:44;;;;;;;21.20;14.53;;;;;;;;;;5042428;28;23407;-75
2023/04/18 01:54:12;;;;;;;21.87;14.70;;;;;;;;;;5054332;28;23080;-75
2023/04/18 01:56:39;;;;;;;18.17;13.97;;;;;;;;;;5060336;28;23624;-76
2023/04/18 01:59:06;;;;;;;19.33;14.37;;;;;;;;;;5070296;28;24480;-76
2023/04/18 02:01:34;;;;;;;19.47;14.67;;;;;;;;;;5082493;28;20234;-76
2023/04/18 02:04:01;;;;;;;17.00;13.17;;;;;;;;;;5052444;28;20331;-75
2023/04/18 02:06:28;;;;;;;18.47;13.37;;;;;;;;;;5042006;28;20217;-75
2023/04/18 02:08:56;;;;;;;19.17;14.37;;;;;;;;;;5037783;28;20282;-75
2023/04/18 02:11:23;;;;;;;21.07;14.97;;;;;;;;;;5037466;28;20229;-75
2023/04/18 02:13:50;;;;;;;22.30;15.57;;;;;;;;;;5037511;28;20210;-75
2023/04/18 02:16:17;;;;;;;22.60;15.03;;;;;;;;;;5040239;28;20309;-75
2023/04/18 02:18:45;;;;;;;21.03;15.20;;;;;;;;;;5034803;28;20222;-74
2023/04/18 02:21:12;;;;;;;21.03;14.83;;;;;;;;;;5042292;28;20340;-76
2023/04/18 02:23:41;;;;;;;22.67;15.67;;;;;;;;;;5052273;28;20205;-73
2023/04/18 02:26:08;;;;;;;23.57;17.17;;;;;;;;;;5040818;28;20205;-75
2023/04/18 02:28:37;;;;;;;26.83;16.97;;;;;;;;;;5052059;28;20689;-75
2023/04/18 02:31:06;;;;;;;24.03;16.27;;;;;;;;;;5054386;28;20229;-75
2023/04/18 02:33:33;;;;;;;26.53;18.13;;;;;;;;;;5031693;28;20200;-74
2023/04/18 02:36:00;;;;;;;25.63;16.80;;;;;;;;;;5072056;28;20233;-75
2023/04/18 02:38:27;;;;;;;25.37;17.83;;;;;;;;;;5068688;28;20969;-75
2023/04/18 02:40:55;;;;;;;26.93;18.20;;;;;;;;;;5050530;28;20202;-75
2023/04/18 02:43:22;;;;;;;28.10;17.73;;;;;;;;;;5078443;28;20224;-75
2023/04/18 02:45:49;;;;;;;26.70;17.50;;;;;;;;;;5084443;28;20268;-75
2023/04/18 02:48:17;;;;;;;28.10;18.13;;;;;;;;;;5067627;28;20312;-75
2023/04/18 02:50:44;;;;;;;28.77;18.57;;;;;;;;;;5051654;28;20249;-75
2023/04/18 02:53:11;;;;;;;32.40;19.07;;;;;;;;;;5069248;28;20206;-76
2023/04/18 02:55:38;;;;;;;28.50;18.53;;;;;;;;;;5067900;28;20229;-76
2023/04/18 02:58:06;;;;;;;27.83;19.27;;;;;;;;;;5069128;28;20662;-75
2023/04/18 03:00:34;;;;;;;31.90;20.27;;;;;;;;;;5060560;28;20225;-76
2023/04/18 03:03:01;;;;;;;31.77;20.53;;;;;;;;;;5038618;28;20225;-74
2023/04/18 03:05:29;;;;;;;34.10;20.90;;;;;;;;;;5033269;28;20209;-75
2023/04/18 03:07:56;;;;;;;31.73;20.53;;;;;;;;;;5040723;28;20292;-74
2023/04/18 03:10:23;;;;;;;32.67;19.53;;;;;;;;;;5035480;28;20233;-75
2023/04/18 03:12:51;;;;;;;35.83;20.90;;;;;;;;;;5035095;28;20201;-75
2023/04/18 03:15:18;;;;;;;36.47;21.67;;;;;;;;;;5036996;28;20209;-75
2023/04/18 03:17:45;;;;;;;34.90;20.80;;;;;;;;;;5033537;28;21173;-75
2023/04/18 03:20:13;;;;;;;36.67;23.70;;;;;;;;;;5041254;28;20204;-76
2023/04/18 03:22:40;;;;;;;34.63;21.37;;;;;;;;;;5050839;28;20213;-75
2023/04/18 03:25:08;;;;;;;35.80;20.20;;;;;;;;;;5054109;28;20329;-75
2023/04/18 03:27:35;;;;;;;31.93;20.20;;;;;;;;;;5049576;28;20198;-76
2023/04/18 03:30:02;;;;;;;33.77;20.10;;;;;;;;;;5045604;28;20244;-75
2023/04/18 03:32:32;;;;;;;30.60;20.60;;;;;;;;;;5051960;28;20212;-75
2023/04/18 03:35:00;;;;;;;33.67;20.77;;;;;;;;;;5077803;28;20359;-75
2023/04/18 03:37:27;;;;;;;30.97;19.63;;;;;;;;;;5060312;28;20201;-76
2023/04/18 03:39:54;;;;;;;34.03;19.67;;;;;;;;;;5066019;28;20228;-76
2023/04/18 03:42:22;;;;;;;33.73;20.47;;;;;;;;;;5066954;28;20201;-76
2023/04/18 03:44:49;;;;;;;37.37;20.87;;;;;;;;;;5079590;28;20209;-75
2023/04/18 03:47:16;;;;;;;32.30;20.37;;;;;;;;;;5047410;28;20201;-76
2023/04/18 03:49:44;;;;;;;33.03;20.13;;;;;;;;;;5066258;28;20214;-74
2023/04/18 03:52:11;;;;;;;35.33;21.17;;;;;;;;;;5066994;28;20221;-76
2023/04/18 03:54:38;;;;;;;35.07;20.47;;;;;;;;;;5066931;28;20228;-75
2023/04/18 03:57:06;;;;;;;37.97;21.07;;;;;;;;;;5051787;28;24491;-76
2023/04/18 03:59:36;;;;;;;35.63;22.43;;;;;;;;;;5059223;28;22121;-76
2023/04/18 04:02:04;;;;;;;36.87;20.67;;;;;;;;;;5065487;28;20206;-74
2023/04/18 04:04:31;;;;;;;36.23;21.80;;;;;;;;;;5063495;28;20288;-75
2023/04/18 04:06:59;;;;;;;30.50;19.50;;;;;;;;;;5069416;28;20201;-75
2023/04/18 04:09:27;;;;;;;33.93;21.27;;;;;;;;;;5067498;28;20225;-75
2023/04/18 04:11:55;;;;;;;34.20;20.13;;;;;;;;;;5063964;28;20666;-75
2023/04/18 04:14:23;;;;;;;29.87;19.80;;;;;;;;;;5039611;28;20229;-75
2023/04/18 04:16:51;;;;;;;34.77;21.03;;;;;;;;;;5034789;28;20238;-75
2023/04/18 04:19:18;;;;;;;35.40;24.50;;;;;;;;;;5022521;28;20706;-73
2023/04/18 04:21:46;;;;;;;37.70;22.97;;;;;;;;;;5043508;28;20701;-75
2023/04/18 04:24:13;;;;;;;37.43;22.87;;;;;;;;;;5037160;28;20205;-75
2023/04/18 04:26:41;;;;;;;40.40;24.20;;;;;;;;;;5032646;28;20674;-76
2023/04/18 04:29:09;;;;;;;39.30;22.40;;;;;;;;;;5031556;28;20234;-75
2023/04/18 04:31:37;;;;;;;54.70;30.73;;;;;;;;;;5032075;28;20237;-75
2023/04/18 04:34:05;;;;;;;41.90;26.83;;;;;;;;;;5036981;28;20202;-75
2023/04/18 04:36:32;;;;;;;33.90;20.03;;;;;;;;;;5032402;28;20334;-75
2023/04/18 04:39:02;;;;;;;31.47;19.60;;;;;;;;;;5036790;28;20378;-76
2023/04/18 04:41:30;;;;;;;32.27;20.00;;;;;;;;;;5046879;28;20205;-75
2023/04/18 04:43:58;;;;;;;35.00;21.50;;;;;;;;;;5034688;28;20644;-76
2023/04/18 04:46:29;;;;;;;34.47;20.43;;;;;;;;;;5032802;28;20214;-75
2023/04/18 04:48:56;;;;;;;34.67;21.60;;;;;;;;;;5034496;28;20977;-76
2023/04/18 04:51:24;;;;;;;35.10;22.27;;;;;;;;;;5058880;28;23726;-76
2023/04/18 04:53:51;;;;;;;41.90;23.47;;;;;;;;;;5035537;28;20216;-75
2023/04/18 04:56:19;;;;;;;38.43;26.53;;;;;;;;;;5035218;28;20273;-74
2023/04/18 04:58:46;;;;;;;43.53;26.77;;;;;;;;;;5017547;28;20233;-73
2023/04/18 05:01:15;;;;;;;41.80;27.00;;;;;;;;;;5036320;28;20217;-74
2023/04/18 05:03:44;;;;;;;41.50;24.00;;;;;;;;;;5037992;28;21132;-75
2023/04/18 05:06:12;;;;;;;44.07;24.47;;;;;;;;;;5033230;28;20614;-76
2023/04/18 05:08:40;;;;;;;42.53;22.93;;;;;;;;;;5035460;28;20218;-76
2023/04/18 05:11:07;;;;;;;42.40;21.67;;;;;;;;;;5038196;28;20228;-74
2023/04/18 05:13:34;;;;;;;39.33;22.37;;;;;;;;;;5031026;28;20724;-75
2023/04/18 05:16:02;;;;;;;43.40;23.10;;;;;;;;;;5038940;28;20209;-74
2023/04/18 05:18:30;;;;;;;42.43;22.97;;;;;;;;;;5033581;28;20311;-76
2023/04/18 05:21:00;;;;;;;39.07;22.03;;;;;;;;;;5030170;28;20271;-75
2023/04/18 05:23:27;;;;;;;49.57;23.60;;;;;;;;;;5036946;28;20687;-75
2023/04/18 05:25:54;;;;;;;40.37;22.23;;;;;;;;;;5048700;28;20214;-74
2023/04/18 05:28:25;;;;;;;42.87;23.10;;;;;;;;;;5055972;28;20236;-75
2023/04/18 05:30:59;;;;;;;39.00;21.93;;;;;;;;;;5054858;28;20225;-73
2023/04/18 05:33:28;;;;;;;54.47;25.23;;;;;;;;;;5055811;28;20246;-75
2023/04/18 05:35:55;;;;;;;50.13;25.80;;;;;;;;;;5072785;28;20302;-76
2023/04/18 05:38:23;;;;;;;47.17;26.20;;;;;;;;;;5054944;28;20278;-74
2023/04/18 05:40:50;;;;;;;61.77;38.20;;;;;;;;;;5066092;28;20229;-75
2023/04/18 05:43:19;;;;;;;65.87;38.70;;;;;;;;;;5057772;28;20205;-75
2023/04/18 05:45:49;;;;;;;51.80;26.70;;;;;;;;;;5056831;28;20206;-75
2023/04/18 05:48:18;;;;;;;49.37;26.40;;;;;;;;;;5051726;28;20226;-75
2023/04/18 05:50:45;;;;;;;46.80;25.63;;;;;;;;;;5052513;28;20229;-75
2023/04/18 05:53:12;;;;;;;47.60;26.00;;;;;;;;;;5049099;28;20689;-75
2023/04/18 05:55:40;;;;;;;48.53;27.23;;;;;;;;;;5063649;28;20201;-75
2023/04/18 05:58:07;;;;;;;49.80;28.27;;;;;;;;;;5051382;28;20479;-75
2023/04/18 06:00:35;;;;;;;50.93;27.67;;;;;;;;;;5053185;28;20287;-75
2023/04/18 06:03:02;;;;;;;47.60;26.83;;;;;;;;;;5060658;28;20197;-75
2023/04/18 06:05:36;;;;;;;39.83;24.73;;;;;;;;;;5053826;28;20611;-75
2023/04/18 06:08:03;;;;;;;47.90;27.87;;;;;;;;;;5055430;28;20329;-74
2023/04/18 06:10:31;;;;;;;44.40;27.17;;;;;;;;;;5055827;28;20288;-76
2023/04/18 06:12:58;;;;;;;48.30;27.90;;;;;;;;;;5052184;28;20198;-76
2023/04/18 06:15:25;;;;;;;43.87;27.47;;;;;;;;;;5067028;28;20619;-76
2023/04/18 06:17:53;;;;;;;46.60;27.80;;;;;;;;;;5057968;28;20206;-74
2023/04/18 06:20:21;;;;;;;44.03;28.53;;;;;;;;;;5072253;28;20224;-73
2023/04/18 06:22:50;;;;;;;39.63;25.53;;;;;;;;;;5052026;28;20260;-74
2023/04/18 06:25:18;;;;;;;39.43;25.97;;;;;;;;;;5068839;28;20251;-75
2023/04/18 06:27:45;;;;;;;36.77;24.37;;;;;;;;;;5069230;28;20213;-76
2023/04/18 06:30:13;;;;;;;39.30;26.63;;;;;;;;;;5052030;28;20248;-76
2023/04/18 06:32:40;;;;;;;37.73;25.53;;;;;;;;;;5063820;28;20233;-76
2023/04/18 06:35:08;;;;;;;35.60;24.03;;;;;;;;;;5034764;28;20198;-75
2023/04/18 06:37:35;;;;;;;35.67;25.47;;;;;;;;;;5058778;28;20233;-75
2023/04/18 06:40:03;;;;;;;38.73;26.30;;;;;;;;;;5040144;28;20222;-76
2023/04/18 06:42:31;;;;;;;35.20;24.47;;;;;;;;;;5051634;28;20202;-75
2023/04/18 06:44:59;;;;;;;37.90;24.60;;;;;;;;;;5044885;28;20566;-76
2023/04/18 06:47:27;;;;;;;32.47;23.07;;;;;;;;;;5041973;28;20209;-75
2023/04/18 06:49:54;;;;;;;38.00;24.73;;;;;;;;;;5046072;28;20234;-74
2023/04/18 06:52:21;;;;;;;36.43;24.17;;;;;;;;;;5048748;28;20261;-75
2023/04/18 06:54:48;;;;;;;34.67;23.73;;;;;;;;;;5056656;28;20212;-76
2023/04/18 06:57:16;;;;;;;39.30;24.67;;;;;;;;;;5052497;28;20656;-75
2023/04/18 06:59:43;;;;;;;37.13;24.03;;;;;;;;;;5049274;28;20328;-75
2023/04/18 07:02:10;;;;;;;36.77;23.77;;;;;;;;;;5051149;28;20614;-75
2023/04/18 07:04:38;;;;;;;48.23;31.93;;;;;;;;;;5046529;28;20210;-76
2023/04/18 07:07:06;;;;;;;42.23;27.00;;;;;;;;;;5051780;28;22124;-74
2023/04/18 07:09:33;;;;;;;39.77;26.03;;;;;;;;;;5050119;28;20257;-75
2023/04/18 07:12:01;;;;;;;37.53;23.37;;;;;;;;;;5025668;28;20230;-75
2023/04/18 07:14:28;;;;;;;37.27;24.87;;;;;;;;;;5045692;28;20198;-76
2023/04/18 07:17:00;;;;;;;36.00;23.37;;;;;;;;;;5045499;28;20206;-75
2023/04/18 07:19:28;;;;;;;38.70;24.43;;;;;;;;;;5050432;28;20711;-74
2023/04/18 07:21:56;;;;;;;36.63;24.30;;;;;;;;;;5056139;28;20326;-75
2023/04/18 07:24:23;;;;;;;43.60;28.33;;;;;;;;;;5052746;28;20275;-76
2023/04/18 07:26:51;;;;;;;41.07;27.40;;;;;;;;;;5053500;28;20245;-76
2023/04/18 07:29:21;;;;;;;35.73;24.80;;;;;;;;;;5055489;28;20224;-73
2023/04/18 07:31:48;;;;;;;36.67;24.23;;;;;;;;;;5050592;28;20225;-74
2023/04/18 07:34:16;;;;;;;34.47;23.30;;;;;;;;;;5038092;28;20245;-75
2023/04/18 07:36:44;;;;;;;35.17;24.87;;;;;;;;;;5040061;28;20451;-75
2023/04/18 07:39:11;;;;;;;34.60;24.53;;;;;;;;;;5044109;28;20256;-76
2023/04/18 07:41:39;;;;;;;40.30;26.30;;;;;;;;;;5068779;28;20209;-74
2023/04/18 07:44:06;;;;;;;36.83;25.20;;;;;;;;;;5045748;28;20263;-76
2023/04/18 07:46:34;;;;;;;41.23;26.03;;;;;;;;;;5054657;28;20201;-75
2023/04/18 07:49:02;;;;;;;39.97;26.60;;;;;;;;;;5053604;28;20822;-75
2023/04/18 07:51:33;;;;;;;43.57;27.13;;;;;;;;;;5047761;28;20225;-75
2023/04/18 07:54:01;;;;;;;43.73;28.00;;;;;;;;;;5060994;28;20209;-75
2023/04/18 07:56:28;;;;;;;43.93;27.97;;;;;;;;;;5057664;28;20201;-75
2023/04/18 07:58:56;;;;;;;49.10;30.53;;;;;;;;;;5055583;28;20217;-75
2023/04/18 08:01:25;;;;;;;44.73;28.37;;;;;;;;;;5067210;28;20208;-75
2023/04/18 08:03:55;;;;;;;47.50;28.90;;;;;;;;;;5038903;28;20201;-74
2023/04/18 08:06:22;;;;;;;46.10;28.43;;;;;;;;;;5055609;28;20206;-75
2023/04/18 08:08:50;;;;;;;40.60;26.60;;;;;;;;;;5062649;28;20276;-74
2023/04/18 08:11:17;;;;;;;41.93;27.77;;;;;;;;;;5052942;28;20235;-75
2023/04/18 08:13:44;;;;;;;39.70;26.23;;;;;;;;;;5047587;28;20202;-73
2023/04/18 08:16:11;;;;;;;40.37;27.77;;;;;;;;;;5065368;28;20271;-75
2023/04/18 08:18:43;;;;;;;38.47;26.50;;;;;;;;;;5062894;28;20925;-75
2023/04/18 08:21:10;;;;;;;39.97;27.00;;;;;;;;;;5062902;28;20209;-75
2023/04/18 08:23:37;;;;;;;37.53;25.47;;;;;;;;;;5076323;28;20206;-75
2023/04/18 08:26:04;;;;;;;36.83;26.30;;;;;;;;;;5059535;28;20255;-75
2023/04/18 08:28:31;;;;;;;37.87;26.17;;;;;;;;;;5044535;28;20221;-75
2023/04/18 08:30:59;;;;;;;39.73;27.00;;;;;;;;;;5054847;28;20205;-75
2023/04/18 08:33:27;;;;;;;35.80;25.40;;;;;;;;;;5057718;28;24564;-75
2023/04/18 08:35:54;;;;;;;35.93;26.87;;;;;;;;;;5059427;28;20922;-74
2023/04/18 08:38:21;;;;;;;31.97;24.77;;;;;;;;;;5052822;28;20221;-73
2023/04/18 08:40:48;;;;;;;36.07;24.93;;;;;;;;;;5060541;28;20231;-75
2023/04/18 08:43:16;;;;;;;32.60;25.20;;;;;;;;;;5061987;28;20733;-75
2023/04/18 08:45:44;;;;;;;32.60;24.40;;;;;;;;;;5069263;28;20205;-75
2023/04/18 08:48:15;;;;;;;33.13;23.87;;;;;;;;;;5043060;28;20320;-75
2023/04/18 08:50:43;;;;;;;32.50;24.03;;;;;;;;;;5048621;28;20223;-75
2023/04/18 08:53:10;;;;;;;31.70;23.63;;;;;;;;;;5056773;28;20624;-75
2023/04/18 08:55:39;;;;;;;27.47;21.80;;;;;;;;;;5060344;28;20201;-75
2023/04/18 08:58:06;;;;;;;24.30;20.03;;;;;;;;;;5053553;28;20228;-75
2023/04/18 09:00:34;;;;;;;29.80;22.37;;;;;;;;;;5069802;28;20238;-75
2023/04/18 09:03:02;;;;;;;29.03;20.90;;;;;;;;;;5055593;28;20209;-75
2023/04/18 09:05:30;;;;;;;26.50;20.23;;;;;;;;;;5052512;28;20208;-74
2023/04/18 09:07:57;;;;;;;28.47;21.67;;;;;;;;;;5023792;28;20218;-74
2023/04/18 09:10:27;;;;;;;24.07;19.87;;;;;;;;;;5049012;28;20304;-74
2023/04/18 09:12:55;;;;;;;25.23;20.77;;;;;;;;;;5057646;28;20679;-74
2023/04/18 09:15:25;;;;;;;25.53;19.90;;;;;;;;;;5048740;28;20202;-74
2023/04/18 09:17:54;;;;;;;25.03;20.00;;;;;;;;;;5047012;28;20202;-74
2023/04/18 09:20:34;;;;;;;26.00;20.47;;;;;;;;;;5043329;28;20213;-74
2023/04/18 09:23:03;;;;;;;24.57;19.70;;;;;;;;;;5028160;28;20573;-74
2023/04/18 09:25:36;;;;;;;24.37;20.23;;;;;;;;;;5044880;28;23257;-72
2023/04/18 09:28:26;;;;;;;24.13;19.67;;;;;;;;;;5056401;28;20695;-75
2023/04/18 09:30:54;;;;;;;26.03;19.73;;;;;;;;;;5064230;28;20300;-73
2023/04/18 09:33:31;;;;;;;25.33;20.70;;;;;;;;;;5068284;28;20217;-74
2023/04/18 09:36:17;;;;;;;22.17;18.87;;;;;;;;;;5055605;28;20555;-74
2023/04/18 09:38:45;;;;;;;22.57;17.87;;;;;;;;;;5061424;28;20228;-74
2023/04/18 09:41:14;;;;;;;19.90;16.30;;;;;;;;;;5056582;28;20209;-74
2023/04/18 09:43:42;;;;;;;19.80;16.53;;;;;;;;;;5054460;28;20911;-73
2023/04/18 09:46:09;;;;;;;20.73;17.60;;;;;;;;;;5066584;28;20293;-72
2023/04/18 09:48:37;;;;;;;21.03;17.63;;;;;;;;;;5056267;28;20227;-74
2023/04/18 09:51:08;;;;;;;20.47;17.77;;;;;;;;;;5037637;28;20210;-74
2023/04/18 09:53:39;;;;;;;20.77;18.07;;;;;;;;;;5049697;28;20278;-72
2023/04/18 09:56:27;;;;;;;20.33;17.90;;;;;;;;;;5020292;28;20222;-74
2023/04/18 09:58:55;;;;;;;27.67;21.93;;;;;;;;;;5037323;28;20217;-74
2023/04/18 10:01:27;;;;;;;21.80;18.90;;;;;;;;;;5053343;28;20206;-74
2023/04/18 10:03:55;;;;;;;24.37;20.17;;;;;;;;;;5051122;28;20202;-75
2023/04/18 10:06:22;;;;;;;21.60;18.20;;;;;;;;;;5048348;28;20209;-74
2023/04/18 10:08:51;;;;;;;20.13;17.53;;;;;;;;;;5040248;28;20316;-74
2023/04/18 10:11:18;;;;;;;22.20;17.17;;;;;;;;;;5052402;28;20208;-74
2023/04/18 10:13:51;;;;;;;20.93;17.50;;;;;;;;;;5045997;28;20225;-74
2023/04/18 10:16:19;;;;;;;18.43;16.43;;;;;;;;;;5032198;28;20616;-74
2023/04/18 10:18:48;;;;;;;19.10;15.83;;;;;;;;;;5047019;28;20263;-74
2023/04/18 10:21:16;;;;;;;19.87;16.47;;;;;;;;;;5042059;28;20290;-74
2023/04/18 10:23:44;;;;;;;19.07;15.90;;;;;;;;;;5038448;28;20301;-73
2023/04/18 10:26:12;;;;;;;19.27;16.30;;;;;;;;;;5037967;28;20698;-74
2023/04/18 10:28:55;;;;;;;17.97;15.57;;;;;;;;;;5041458;28;20381;-74
2023/04/18 10:31:26;;;;;;;20.30;15.47;;;;;;;;;;5040267;28;21104;-74
2023/04/18 10:33:55;;;;;;;16.93;15.13;;;;;;;;;;5050055;28;20275;-75
2023/04/18 10:36:32;;;;;;;19.17;14.80;;;;;;;;;;5043253;28;20197;-73
2023/04/18 10:39:02;;;;;;;18.13;15.33;;;;;;;;;;5047427;28;20300;-74
2023/04/18 10:41:33;;;;;;;18.77;15.73;;;;;;;;;;5045619;28;20231;-74
2023/04/18 10:44:07;;;;;;;17.07;15.27;;;;;;;;;;5061058;28;20247;-74
2023/04/18 10:46:39;;;;;;;18.00;15.93;;;;;;;;;;5048497;28;20675;-74
2023/04/18 10:49:13;;;;;;;16.20;14.10;;;;;;;;;;5049793;28;20238;-72
2023/04/18 10:51:43;;;;;;;18.30;15.63;;;;;;;;;;5057283;28;20877;-75
2023/04/18 10:54:12;;;;;;;17.43;14.77;;;;;;;;;;5054487;28;20639;-75
2023/04/18 10:56:39;;;;;;;17.77;15.67;;;;;;;;;;5060195;28;20194;-74
2023/04/18 10:59:09;;;;;;;18.90;14.30;;;;;;;;;;5053727;28;20279;-74
2023/04/18 11:01:37;;;;;;;15.43;13.47;;;;;;;;;;5048657;28;20267;-75
2023/04/18 11:04:11;;;;;;;17.03;15.13;;;;;;;;;;5029541;28;20220;-74
2023/04/18 11:06:47;;;;;;;17.63;14.63;;;;;;;;;;5062775;28;20205;-74
2023/04/18 11:09:15;;;;;;;17.20;13.80;;;;;;;;;;5062875;28;20613;-74
2023/04/18 11:11:43;;;;;;;16.10;13.87;;;;;;;;;;5065243;28;20295;-74
2023/04/18 11:14:10;;;;;;;15.30;13.73;;;;;;;;;;5055234;28;20205;-74
2023/04/18 11:16:38;;;;;;;13.73;12.33;;;;;;;;;;5056083;28;20193;-74
2023/04/18 11:19:22;;;;;;;15.47;13.43;;;;;;;;;;5048760;28;22526;-74
2023/04/18 11:21:50;;;;;;;14.13;12.23;;;;;;;;;;5047929;28;20212;-73
2023/04/18 11:24:22;;;;;;;13.60;11.97;;;;;;;;;;5058914;28;20204;-75
2023/04/18 11:26:54;;;;;;;13.50;12.10;;;;;;;;;;5052513;28;20206;-74
2023/04/18 11:29:21;;;;;;;13.43;11.50;;;;;;;;;;5059950;28;20292;-74
2023/04/18 11:31:52;;;;;;;15.00;12.63;;;;;;;;;;5060243;28;20746;-75
2023/04/18 11:34:28;;;;;;;12.50;11.20;;;;;;;;;;5055247;28;20685;-74
2023/04/18 11:36:56;;;;;;;13.10;11.53;;;;;;;;;;5047754;28;20210;-74
2023/04/18 11:39:23;;;;;;;13.80;11.63;;;;;;;;;;5068849;28;20217;-74
2023/04/18 11:41:51;;;;;;;14.27;12.20;;;;;;;;;;5051944;28;20312;-74
2023/04/18 11:44:24;;;;;;;14.07;11.40;;;;;;;;;;5060891;28;20229;-74
2023/04/18 11:46:54;;;;;;;12.10;10.73;;;;;;;;;;5048425;28;20205;-74
2023/04/18 11:49:25;;;;;;;12.53;11.10;;;;;;;;;;5058580;28;20320;-74
2023/04/18 11:51:53;;;;;;;12.47;10.87;;;;;;;;;;5032987;28;20214;-74
2023/04/18 11:54:40;;;;;;;11.87;10.67;;;;;;;;;;5058639;28;20579;-74
2023/04/18 11:57:18;;;;;;;11.00;9.63;;;;;;;;;;5032008;28;20209;-73
2023/04/18 11:59:53;;;;;;;12.20;9.67;;;;;;;;;;5051455;28;20243;-74
2023/04/18 12:02:21;;;;;;;11.13;9.93;;;;;;;;;;5038292;28;20224;-74
2023/04/18 12:04:50;;;;;;;10.80;9.70;;;;;;;;;;5046787;28;20206;-74
2023/04/18 12:07:35;;;;;;;10.17;9.07;;;;;;;;;;5063821;28;20204;-73
2023/04/18 12:10:03;;;;;;;10.43;9.33;;;;;;;;;;5054188;28;20275;-74
2023/04/18 12:12:31;;;;;;;10.37;9.30;;;;;;;;;;5051361;28;20226;-74
2023/04/18 12:15:02;;;;;;;9.73;8.73;;;;;;;;;;5049992;28;20293;-73
2023/04/18 12:17:30;;;;;;;11.60;9.10;;;;;;;;;;5047726;28;20201;-73
2023/04/18 12:20:00;;;;;;;10.53;9.43;;;;;;;;;;5055005;28;20233;-74
2023/04/18 12:22:41;;;;;;;10.87;9.40;;;;;;;;;;5042303;28;20228;-75
2023/04/18 12:25:09;;;;;;;10.17;8.57;;;;;;;;;;5048643;28;20337;-74
2023/04/18 12:27:47;;;;;;;9.77;8.77;;;;;;;;;;5032726;28;20219;-74
2023/04/18 12:30:14;;;;;;;11.37;9.13;;;;;;;;;;5051322;28;20335;-75
2023/04/18 12:32:43;;;;;;;10.55;9.40;;;;;;;;;;5051376;28;20614;-75
2023/04/18 12:35:11;;;;;;;11.50;8.95;;;;;;;;;;5059157;28;20197;-75
2023/04/18 12:37:38;;;;;;;9.77;8.77;;;;;;;;;;5064853;28;20197;-75
2023/04/18 12:40:06;;;;;;;9.93;8.52;;;;;;;;;;5054882;28;20276;-75
2023/04/18 12:42:33;;;;;;;9.70;8.75;;;;;;;;;;5045429;28;20209;-75
2023/04/18 12:45:02;;;;;;;10.57;9.00;;;;;;;;;;5049795;28;20242;-75
2023/04/18 12:47:29;;;;;;;10.40;9.18;;;;;;;;;;5059142;28;20579;-75
2023/04/18 12:49:57;;;;;;;10.50;9.40;;;;;;;;;;5033560;28;20232;-75
2023/04/18 12:52:24;;;;;;;10.38;8.80;;;;;;;;;;5053837;28;20209;-75
2023/04/18 12:54:55;;;;;;;9.85;8.85;;;;;;;;;;5048166;28;20205;-75
2023/04/18 12:57:22;;;;;;;9.43;8.50;;;;;;;;;;5056205;28;20237;-75
2023/04/18 12:59:50;;;;;;;8.07;7.35;;;;;;;;;;5057656;28;20226;-74
2023/04/18 13:02:17;;;;;;;9.02;8.13;;;;;;;;;;5056546;28;20212;-74
2023/04/18 13:04:45;;;;;;;8.93;7.70;;;;;;;;;;5064955;28;20315;-73
2023/04/18 13:07:12;;;;;;;8.95;7.35;;;;;;;;;;5047983;28;20356;-75
2023/04/18 13:09:40;;;;;;;9.85;7.57;;;;;;;;;;5050522;28;20217;-75
2023/04/18 13:12:07;;;;;;;9.20;7.90;;;;;;;;;;5065186;28;20336;-74
2023/04/18 13:14:34;;;;;;;8.50;7.65;;;;;;;;;;5051903;28;20229;-75
2023/04/18 13:17:02;;;;;;;8.80;7.68;;;;;;;;;;5056073;28;20198;-75
2023/04/18 13:19:31;;;;;;;9.23;7.80;;;;;;;;;;5058565;28;20217;-75
2023/04/18 13:21:58;;;;;;;9.55;7.93;;;;;;;;;;5058522;28;20236;-74
2023/04/18 13:24:26;;;;;;;9.13;7.78;;;;;;;;;;5056491;28;20209;-75
2023/04/18 13:26:53;;;;;;;7.38;6.68;;;;;;;;;;5060711;28;20272;-73
2023/04/18 13:29:21;;;;;;;7.93;7.13;;;;;;;;;;5029206;28;20343;-75
2023/04/18 13:31:48;;;;;;;8.00;7.20;;;;;;;;;;5055372;28;20220;-73
2023/04/18 13:34:15;;;;;;;6.72;6.07;;;;;;;;;;5057875;28;20232;-74
2023/04/18 13:36:43;;;;;;;6.75;6.05;;;;;;;;;;5062553;28;20821;-75
2023/04/18 13:39:11;;;;;;;6.68;5.97;;;;;;;;;;5065590;28;20248;-76
2023/04/18 13:41:38;;;;;;;8.30;7.13;;;;;;;;;;5064470;28;20209;-75
2023/04/18 13:44:07;;;;;;;6.57;5.90;;;;;;;;;;5052851;28;20238;-75
2023/04/18 13:46:35;;;;;;;6.25;5.65;;;;;;;;;;5061343;28;20209;-76
2023/04/18 13:49:02;;;;;;;6.80;6.10;;;;;;;;;;5045015;28;20279;-75
2023/04/18 13:51:30;;;;;;;7.20;6.50;;;;;;;;;;5048363;28;20237;-75
2023/04/18 13:53:59;;;;;;;8.18;6.40;;;;;;;;;;5058395;28;20224;-75
2023/04/18 13:56:27;;;;;;;7.20;6.47;;;;;;;;;;5039732;28;20201;-75
2023/04/18 13:58:55;;;;;;;6.97;6.28;;;;;;;;;;5062031;28;20221;-75
2023/04/18 14:01:22;;;;;;;6.45;5.85;;;;;;;;;;5058865;28;20203;-74
2023/04/18 14:03:49;;;;;;;7.38;6.50;;;;;;;;;;5066185;28;20216;-75
2023/04/18 14:06:17;;;;;;;6.38;5.80;;;;;;;;;;5053342;28;20551;-75
2023/04/18 14:08:44;;;;;;;6.78;6.10;;;;;;;;;;5056023;28;20589;-75
2023/04/18 14:11:11;;;;;;;9.48;6.82;;;;;;;;;;5057640;28;20205;-74
2023/04/18 14:13:39;;;;;;;6.57;5.88;;;;;;;;;;5068848;28;20902;-76
2023/04/18 14:16:06;;;;;;;7.30;6.53;;;;;;;;;;5059258;28;20255;-76
2023/04/18 14:18:34;;;;;;;6.50;5.80;;;;;;;;;;5051423;28;20217;-76
2023/04/18 14:21:01;;;;;;;7.00;6.30;;;;;;;;;;5041271;28;20210;-76
2023/04/18 14:23:29;;;;;;;6.82;6.13;;;;;;;;;;5048073;28;20201;-76
2023/04/18 14:25:56;;;;;;;8.25;6.32;;;;;;;;;;5045704;28;20217;-76
2023/04/18 14:28:24;;;;;;;7.15;6.43;;;;;;;;;;5054272;28;20316;-76